Altenburg, Missouri
Current Conditions -  °F | °C
As of 5:52 PM on Friday 28 Nov 2014 (Local Time) from KMDH Reporting Station
Clear Clear  
Wind Chill: 36°   Ceiling: Unl
Heat Index: 43°   Visibility: 10mi
Dew Point: 28°   Wind: 13mph
Humidity: 56%   Direction: 180°S
Pressure: 30.03"   Gusts: NA
Location:  37.63°N, 89.59°W
Report Text: KMDH 282352Z AUTO 18011KT 10SM CLR 06/M02 A3003 RMK AO2 SLP171 T00611022 10089 20061 56016
Loading
Personal Weather Stations






























Interactive Weather Map New forecast layout! Learn more

10-Day Weather Forecast

Advertisements
Track Severe Weather on mobile